Time;durP1;ratioP1;P1;durP2;ratioP2;P2;SDS_P1;SDS_P2;PMS_P1;PMS_P2;Temp;Humidity;BMP_temperature;BMP_pressure;BME280_temperature;BME280_humidity;BME280_pressure;Samples;Min_cycle;Max_cycle;Signal;HPM_P1;HPM_P2
2021/05/11 00:01:16;;;;;;;1.17;0.70;;;13.00;99.90;;;;;;5037039;28;20385;-85
2021/05/11 00:03:43;;;;;;;2.17;0.80;;;13.20;99.90;;;;;;5037081;28;20029;-85
2021/05/11 00:06:09;;;;;;;1.23;0.80;;;13.10;99.90;;;;;;5054822;28;20497;-85
2021/05/11 00:08:35;;;;;;;1.00;0.70;;;13.00;99.90;;;;;;5054703;28;20017;-85
2021/05/11 00:11:01;;;;;;;1.95;0.85;;;13.10;99.90;;;;;;5036940;28;20091;-85
2021/05/11 00:13:27;;;;;;;3.63;0.80;;;13.20;99.90;;;;;;5036825;28;20083;-85
2021/05/11 00:15:52;;;;;;;2.72;0.80;;;13.20;99.90;;;;;;5036886;28;20396;-85
2021/05/11 00:18:18;;;;;;;1.33;0.80;;;13.20;99.90;;;;;;5036692;28;20029;-85
2021/05/11 00:20:44;;;;;;;1.50;0.80;;;13.00;99.90;;;;;;5036774;28;20112;-85
2021/05/11 00:23:10;;;;;;;1.50;0.60;;;13.00;99.90;;;;;;5054746;28;20108;-85
2021/05/11 00:25:35;;;;;;;2.75;0.70;;;13.20;99.90;;;;;;5036721;28;20032;-85
2021/05/11 00:28:02;;;;;;;1.15;0.70;;;13.30;99.90;;;;;;5036720;28;20035;-85
2021/05/11 00:30:28;;;;;;;2.85;0.73;;;13.40;99.90;;;;;;5036488;28;20108;-85
2021/05/11 00:32:53;;;;;;;1.70;0.70;;;13.20;99.90;;;;;;5036332;28;20116;-85
2021/05/11 00:35:19;;;;;;;2.15;0.70;;;13.20;99.90;;;;;;5054313;28;20029;-85
2021/05/11 00:37:45;;;;;;;0.90;0.57;;;13.20;99.90;;;;;;5054216;28;20028;-85
2021/05/11 00:40:12;;;;;;;1.27;0.65;;;13.30;99.90;;;;;;5054509;28;20035;-85
2021/05/11 00:42:38;;;;;;;3.35;0.70;;;13.20;99.90;;;;;;5054130;28;20460;-85
2021/05/11 00:45:05;;;;;;;2.42;0.63;;;13.10;99.90;;;;;;5036208;28;20055;-85
2021/05/11 00:47:31;;;;;;;4.32;0.77;;;13.10;99.90;;;;;;5019680;28;20052;-85
2021/05/11 00:49:57;;;;;;;1.25;0.55;;;13.20;99.90;;;;;;5054311;28;20112;-85
2021/05/11 00:52:23;;;;;;;1.42;0.55;;;13.10;99.90;;;;;;5053998;28;20056;-85
2021/05/11 00:54:49;;;;;;;1.10;0.70;;;12.90;99.90;;;;;;5036091;28;20111;-85
2021/05/11 00:57:15;;;;;;;0.70;0.50;;;12.80;99.90;;;;;;5036078;28;20110;-85
2021/05/11 00:59:41;;;;;;;3.03;0.80;;;13.00;99.90;;;;;;5035965;28;20075;-85
2021/05/11 01:02:08;;;;;;;1.85;0.70;;;13.10;99.90;;;;;;5035910;28;20377;-85
2021/05/11 01:04:34;;;;;;;2.15;0.80;;;13.00;99.90;;;;;;5035930;28;20025;-85
2021/05/11 01:07:00;;;;;;;2.10;0.80;;;13.00;99.90;;;;;;5053744;28;20096;-85
2021/05/11 01:09:26;;;;;;;1.58;0.93;;;13.10;99.90;;;;;;5053687;28;20507;-85
2021/05/11 01:11:53;;;;;;;2.00;1.02;;;13.20;99.90;;;;;;5035763;28;20028;-85
2021/05/11 01:14:20;;;;;;;0.85;0.65;;;13.20;99.90;;;;;;5035784;28;20518;-85
2021/05/11 01:16:48;;;;;;;1.23;0.52;;;13.20;99.90;;;;;;5053813;28;20036;-85
2021/05/11 01:22:05;;;;;;;1.17;0.73;;;13.10;99.90;;;;;;5052912;28;20473;-85
2021/05/11 01:24:34;;;;;;;1.25;0.85;;;13.30;99.90;;;;;;5053571;28;20013;-85
2021/05/11 01:27:23;;;;;;;2.45;1.10;;;13.30;99.90;;;;;;5035639;28;20108;-85
2021/05/11 02:23:46;;;;;;;0.77;0.70;;;13.30;99.90;;;;;;5021988;28;20087;-85
2021/05/11 02:26:12;;;;;;;1.05;0.70;;;13.20;99.90;;;;;;5031759;28;20431;-85
2021/05/11 02:28:38;;;;;;;0.98;0.60;;;13.20;99.90;;;;;;5031690;28;20049;-85
2021/05/11 02:31:04;;;;;;;0.95;0.43;;;13.20;99.90;;;;;;5031673;28;20374;-85
2021/05/11 02:33:29;;;;;;;0.93;0.60;;;13.30;99.90;;;;;;5033232;28;20079;-85
2021/05/11 02:35:55;;;;;;;0.70;0.60;;;13.20;99.90;;;;;;5035386;28;20087;-85
2021/05/11 02:38:21;;;;;;;1.23;0.60;;;13.10;99.90;;;;;;5036709;28;20026;-85
2021/05/11 02:40:46;;;;;;;4.47;1.33;;;13.10;99.90;;;;;;5035358;28;20022;-85
2021/05/11 02:43:26;;;;;;;2.28;1.30;;;12.90;99.90;;;;;;5036468;28;20080;-85
2021/05/11 02:45:51;;;;;;;2.08;0.80;;;12.70;99.90;;;;;;5036488;28;20568;-85
2021/05/11 02:48:17;;;;;;;2.40;0.93;;;12.70;99.90;;;;;;5044942;28;20124;-85
2021/05/11 02:50:43;;;;;;;1.67;0.80;;;12.60;99.90;;;;;;5056204;28;20052;-85
2021/05/11 02:53:09;;;;;;;0.88;0.50;;;12.50;99.90;;;;;;5056292;28;20028;-85
2021/05/11 02:55:35;;;;;;;2.17;0.98;;;12.60;99.90;;;;;;5056236;28;20021;-85
2021/05/11 02:58:01;;;;;;;1.10;0.80;;;12.50;99.90;;;;;;5056441;28;20104;-86
2021/05/11 03:00:27;;;;;;;5.28;2.35;;;12.60;99.90;;;;;;5056111;28;20155;-85
2021/05/11 03:02:54;;;;;;;5.05;1.27;;;12.70;99.90;;;;;;5038143;28;20476;-85
2021/05/11 03:05:20;;;;;;;3.97;0.90;;;12.80;99.90;;;;;;5038165;28;20017;-85
2021/05/11 03:07:45;;;;;;;1.70;0.80;;;13.00;99.90;;;;;;5038171;28;20384;-85
2021/05/11 03:10:14;;;;;;;2.05;0.60;;;13.10;99.90;;;;;;5038062;28;20060;-85
2021/05/11 03:12:40;;;;;;;1.25;0.60;;;13.10;99.90;;;;;;5038011;28;20025;-85
2021/05/11 03:15:07;;;;;;;1.63;0.85;;;12.90;99.90;;;;;;5037972;28;20503;-85
2021/05/11 03:17:33;;;;;;;2.25;0.75;;;12.90;99.90;;;;;;5055745;28;20388;-85
2021/05/11 03:19:59;;;;;;;2.80;0.60;;;12.90;99.90;;;;;;5037947;28;20020;-85
2021/05/11 03:22:24;;;;;;;0.93;0.60;;;12.80;99.90;;;;;;5055891;28;20380;-85
2021/05/11 03:24:50;;;;;;;0.93;0.70;;;12.90;99.90;;;;;;5037733;28;20025;-85
2021/05/11 03:27:17;;;;;;;0.60;0.40;;;12.80;99.90;;;;;;5056167;28;20414;-85
2021/05/11 03:29:43;;;;;;;2.33;0.60;;;12.50;99.90;;;;;;5055492;28;20112;-85
2021/05/11 03:32:09;;;;;;;0.80;0.50;;;12.40;99.90;;;;;;5055548;28;20029;-85
2021/05/11 03:34:37;;;;;;;1.98;0.70;;;12.60;99.90;;;;;;5037566;28;20032;-85
2021/05/11 03:37:03;;;;;;;1.40;0.70;;;12.60;99.90;;;;;;5055691;28;20036;-85
2021/05/11 03:39:36;;;;;;;5.45;0.70;;;12.60;99.90;;;;;;5055382;28;20481;-85
2021/05/11 03:42:06;;;;;;;1.02;0.50;;;12.40;99.90;;;;;;5037459;28;20032;-85
2021/05/11 03:44:33;;;;;;;1.67;0.60;;;12.30;99.90;;;;;;5036833;28;20025;-85
2021/05/11 03:46:59;;;;;;;1.10;0.70;;;12.20;99.90;;;;;;5055162;28;20036;-85
2021/05/11 03:49:24;;;;;;;3.47;0.60;;;12.10;99.90;;;;;;5037152;28;20128;-85
2021/05/11 03:51:50;;;;;;;1.17;0.63;;;12.10;99.90;;;;;;5055166;28;20033;-85
2021/05/11 03:54:16;;;;;;;0.70;0.63;;;12.10;99.90;;;;;;5037247;28;20020;-85
2021/05/11 03:56:42;;;;;;;1.52;0.77;;;12.00;99.90;;;;;;5055583;28;20033;-85
2021/05/11 03:59:08;;;;;;;1.88;0.70;;;12.00;99.90;;;;;;5037084;28;20029;-85
2021/05/11 04:01:34;;;;;;;1.38;0.60;;;12.00;99.90;;;;;;5054849;28;20025;-85
2021/05/11 04:03:59;;;;;;;2.08;0.70;;;12.00;99.90;;;;;;5054884;28;20017;-85
2021/05/11 04:06:25;;;;;;;2.65;0.60;;;12.20;99.90;;;;;;5036975;28;20055;-85
2021/05/11 04:08:58;;;;;;;1.80;0.70;;;12.40;99.90;;;;;;5036923;28;20056;-85
2021/05/11 04:16:42;;;;;;;2.67;1.10;;;12.40;99.90;;;;;;5031346;28;20037;-85
2021/05/11 04:19:10;;;;;;;1.95;1.10;;;12.40;99.90;;;;;;5054583;28;20017;-85
2021/05/11 04:21:37;;;;;;;1.63;0.90;;;12.20;99.90;;;;;;5054731;28;20025;-85
2021/05/11 04:24:03;;;;;;;2.30;1.23;;;12.40;99.90;;;;;;5036663;28;20028;-85
2021/05/11 04:26:29;;;;;;;2.22;1.15;;;12.40;99.90;;;;;;5054430;28;20475;-85
2021/05/11 04:28:55;;;;;;;1.85;0.95;;;12.30;99.90;;;;;;5054686;28;20053;-85
2021/05/11 04:31:21;;;;;;;5.93;1.67;;;12.50;99.90;;;;;;5054371;28;20106;-85
2021/05/11 04:33:48;;;;;;;1.80;1.40;;;12.50;99.90;;;;;;5054603;28;20021;-85
2021/05/11 04:36:15;;;;;;;2.55;1.70;;;12.50;99.90;;;;;;5054330;28;20025;-85
2021/05/11 04:38:41;;;;;;;6.32;1.77;;;12.50;99.90;;;;;;5054245;28;20029;-85
2021/05/11 04:41:08;;;;;;;2.90;1.88;;;12.70;99.90;;;;;;5036276;28;20025;-85
2021/05/11 04:43:35;;;;;;;6.35;1.83;;;12.50;99.90;;;;;;5054025;28;20449;-85
2021/05/11 04:46:07;;;;;;;4.90;2.28;;;12.30;99.90;;;;;;5054222;28;20473;-85
2021/05/11 04:48:33;;;;;;;2.90;1.67;;;12.30;99.90;;;;;;5035952;28;20045;-85
2021/05/11 04:50:59;;;;;;;4.30;2.22;;;12.20;99.90;;;;;;5054003;28;20526;-85
2021/05/11 04:53:25;;;;;;;2.00;1.70;;;12.30;99.90;;;;;;5036031;28;20032;-85
2021/05/11 04:55:51;;;;;;;7.03;2.13;;;12.30;99.90;;;;;;5053108;28;20064;-85
2021/05/11 04:58:17;;;;;;;7.55;3.72;;;12.30;99.90;;;;;;5035900;28;20029;-85
2021/05/11 05:00:43;;;;;;;4.30;2.80;;;12.40;99.90;;;;;;5054081;28;20029;-85
2021/05/11 05:03:12;;;;;;;4.45;2.20;;;12.60;99.90;;;;;;5035818;28;20033;-85
2021/05/11 05:05:38;;;;;;;6.55;3.70;;;12.90;99.90;;;;;;5053818;28;20025;-85
2021/05/11 05:08:04;;;;;;;8.02;4.00;;;12.90;99.90;;;;;;5036964;28;20032;-85
2021/05/11 05:10:29;;;;;;;8.20;4.97;;;12.80;99.90;;;;;;5053706;28;20033;-85
2021/05/11 05:12:55;;;;;;;8.02;5.13;;;12.80;99.90;;;;;;5053589;28;20096;-85
2021/05/11 05:15:21;;;;;;;10.23;6.53;;;12.90;99.90;;;;;;5035762;28;20021;-85
2021/05/11 05:17:46;;;;;;;9.27;6.30;;;13.20;99.90;;;;;;5035643;28;20029;-85
2021/05/11 05:20:12;;;;;;;12.15;8.43;;;13.20;99.90;;;;;;5035619;28;20453;-85
2021/05/11 05:22:39;;;;;;;11.18;8.30;;;13.20;99.90;;;;;;5035528;28;20072;-85
2021/05/11 05:25:17;;;;;;;12.75;8.18;;;13.40;99.90;;;;;;5054038;28;20120;-86
2021/05/11 05:27:56;;;;;;;10.73;8.27;;;13.40;99.90;;;;;;5035868;28;20071;-85
2021/05/11 05:30:22;;;;;;;8.75;7.25;;;13.50;99.90;;;;;;5035528;28;20025;-85
2021/05/11 05:32:48;;;;;;;15.32;10.18;;;13.40;99.90;;;;;;5053362;28;20473;-85
2021/05/11 05:35:14;;;;;;;11.48;8.23;;;13.40;99.90;;;;;;5035453;28;20075;-85
2021/05/11 05:37:40;;;;;;;13.02;9.38;;;13.30;99.90;;;;;;5053358;28;20025;-85
2021/05/11 05:40:08;;;;;;;12.43;10.00;;;13.40;99.90;;;;;;5035349;28;20021;-85
2021/05/11 05:42:34;;;;;;;13.82;11.10;;;13.40;99.90;;;;;;5035283;28;20032;-85
2021/05/11 05:45:00;;;;;;;15.07;12.15;;;13.40;99.90;;;;;;5036241;28;20017;-85
2021/05/11 05:47:26;;;;;;;12.77;10.32;;;13.30;99.90;;;;;;5053124;28;20017;-85
2021/05/11 05:50:04;;;;;;;10.63;8.80;;;13.30;99.90;;;;;;5053013;28;20412;-85
2021/05/11 05:52:39;;;;;;;17.20;13.10;;;13.40;99.90;;;;;;5053164;28;20033;-85
2021/05/11 05:55:06;;;;;;;16.33;13.02;;;13.50;99.90;;;;;;5053717;28;20155;-85
2021/05/11 05:57:31;;;;;;;18.98;13.85;;;13.50;99.90;;;;;;5035143;28;20036;-85
2021/05/11 05:59:57;;;;;;;19.15;13.38;;;13.50;99.90;;;;;;5035468;28;20029;-85
2021/05/11 06:02:23;;;;;;;14.48;11.18;;;13.50;99.90;;;;;;5035136;28;20075;-85
2021/05/11 06:04:49;;;;;;;21.08;15.65;;;13.50;99.90;;;;;;5053439;28;20026;-85
2021/05/11 06:07:16;;;;;;;18.35;14.30;;;13.50;99.90;;;;;;5036521;28;20020;-85
2021/05/11 06:09:41;;;;;;;19.77;15.43;;;13.70;99.90;;;;;;5039331;28;20029;-85
2021/05/11 06:17:17;;;;;;;22.42;17.40;;;13.60;99.90;;;;;;5057574;28;20071;-85
2021/05/11 06:19:48;;;;;;;22.67;16.70;;;13.60;99.90;;;;;;5039548;28;20112;-85
2021/05/11 06:22:14;;;;;;;23.38;17.27;;;13.60;99.90;;;;;;5038840;28;20466;-85
2021/05/11 06:24:41;;;;;;;22.27;15.90;;;13.40;99.90;;;;;;5038855;28;20029;-85
2021/05/11 06:27:08;;;;;;;27.15;20.13;;;13.40;99.90;;;;;;5038876;28;20021;-85
2021/05/11 06:29:37;;;;;;;23.00;17.73;;;13.40;99.90;;;;;;5038767;28;20021;-84
2021/05/11 06:32:03;;;;;;;20.10;16.20;;;13.40;99.90;;;;;;5038798;28;20040;-84
2021/05/11 06:34:30;;;;;;;21.23;17.55;;;13.60;99.90;;;;;;5038718;28;20028;-84
2021/05/11 06:36:56;;;;;;;18.75;14.25;;;13.60;99.90;;;;;;5038666;28;20025;-84
2021/05/11 06:39:22;;;;;;;18.33;14.90;;;13.60;99.90;;;;;;5038550;28;20090;-84
2021/05/11 06:41:52;;;;;;;17.00;13.25;;;13.60;99.90;;;;;;5038568;28;20163;-84
2021/05/11 06:54:58;;;;;;;14.57;11.68;;;13.90;99.90;;;;;;5028864;28;20029;-84
2021/05/11 06:57:25;;;;;;;16.77;13.40;;;13.90;99.90;;;;;;5038265;28;20484;-84
2021/05/11 06:59:51;;;;;;;12.50;10.52;;;14.00;99.90;;;;;;5056117;28;20087;-84
2021/05/11 07:02:17;;;;;;;13.75;11.35;;;13.90;99.90;;;;;;5038158;28;20025;-83
2021/05/11 07:04:44;;;;;;;14.35;11.82;;;13.90;99.90;;;;;;5038104;28;20025;-84
2021/05/11 07:07:12;;;;;;;15.35;12.80;;;13.90;99.90;;;;;;5038113;28;20021;-84
2021/05/11 07:14:30;;;;;;;13.35;11.85;;;13.70;99.90;;;;;;5056031;28;20025;-84
2021/05/11 07:16:55;;;;;;;13.27;10.90;;;13.80;99.90;;;;;;5037915;28;20075;-84
2021/05/11 07:19:21;;;;;;;13.70;11.85;;;13.70;99.90;;;;;;5054918;28;20074;-84
2021/05/11 07:21:47;;;;;;;13.40;11.52;;;13.70;99.90;;;;;;5055630;28;20027;-84
2021/05/11 07:24:13;;;;;;;13.43;11.05;;;13.70;99.90;;;;;;5055840;28;20021;-84
2021/05/11 07:27:11;;;;;;;15.25;13.02;;;13.70;99.90;;;;;;5056083;28;20017;-84
2021/05/11 07:32:07;;;;;;;12.85;10.68;;;13.90;99.90;;;;;;5055817;28;20116;-84
2021/05/11 07:34:33;;;;;;;14.88;12.85;;;13.90;99.90;;;;;;5055982;28;20052;-84
2021/05/11 07:36:59;;;;;;;11.75;10.45;;;13.90;99.90;;;;;;5037525;28;20024;-84
2021/05/11 07:39:25;;;;;;;15.30;12.18;;;14.00;99.90;;;;;;5037532;28;20032;-86
2021/05/11 07:41:51;;;;;;;14.35;12.18;;;14.00;99.90;;;;;;5037653;28;20396;-89
2021/05/11 07:44:16;;;;;;;13.95;12.32;;;14.10;99.90;;;;;;5037485;28;20021;-87
2021/05/11 07:47:12;;;;;;;14.50;13.00;;;14.10;99.90;;;;;;5037617;28;20025;-87
2021/05/11 07:56:40;;;;;;;12.77;10.93;;;13.80;99.90;;;;;;5055877;28;20185;-87
2021/05/11 08:03:48;;;;;;;12.30;10.20;;;13.90;99.90;;;;;;5057900;28;20035;-85
2021/05/11 08:14:31;;;;;;;8.88;7.38;;;14.80;99.90;;;;;;5056250;28;20047;-87
2021/05/11 08:16:59;;;;;;;8.85;7.20;;;15.10;99.90;;;;;;5037646;28;20377;-86
2021/05/11 08:27:45;;;;;;;9.73;7.07;;;15.50;99.90;;;;;;5055131;28;20040;-87
2021/05/11 08:30:11;;;;;;;8.60;6.95;;;15.50;99.90;;;;;;5036736;28;20020;-87
2021/05/11 08:32:37;;;;;;;8.90;7.30;;;15.30;99.90;;;;;;5054617;28;20024;-87
2021/05/11 08:35:04;;;;;;;8.70;7.50;;;15.20;99.90;;;;;;5036667;28;20502;-86
2021/05/11 08:37:29;;;;;;;11.10;8.75;;;15.10;99.90;;;;;;5036533;28;20115;-87
2021/05/11 08:39:55;;;;;;;11.20;9.30;;;15.10;99.90;;;;;;5036829;28;20480;-88
2021/05/11 08:42:21;;;;;;;10.75;8.75;;;15.10;99.90;;;;;;5037024;28;20476;-88
2021/05/11 08:44:46;;;;;;;10.00;8.68;;;15.30;99.90;;;;;;5036956;28;20162;-88
2021/05/11 08:47:14;;;;;;;10.95;9.80;;;15.20;99.90;;;;;;5036584;28;20036;-87
2021/05/11 08:49:40;;;;;;;8.80;7.90;;;15.20;99.90;;;;;;5036099;28;20135;-87
2021/05/11 08:52:32;;;;;;;8.48;7.57;;;15.30;99.90;;;;;;5036404;28;20036;-87
2021/05/11 09:25:30;;;;;;;9.90;6.32;;;15.90;99.90;;;;;;5053756;28;20028;-86
2021/05/11 09:28:02;;;;;;;6.50;5.50;;;16.10;99.90;;;;;;5035553;28;20393;-86
2021/05/11 09:33:41;;;;;;;8.20;6.57;;;15.80;99.90;;;;;;5054175;28;20043;-87
2021/05/11 09:56:25;;;;;;;11.02;6.57;;;16.50;99.90;;;;;;5013658;28;20084;-88
2021/05/11 10:47:01;;;;;;;6.55;5.05;;;16.80;99.90;;;;;;5013223;28;20042;-88
2021/05/11 10:49:38;;;;;;;5.75;4.88;;;16.90;99.90;;;;;;5041602;28;20143;-88
2021/05/11 10:52:14;;;;;;;6.05;5.38;;;17.00;99.90;;;;;;5035244;28;20106;-88
2021/05/11 10:54:52;;;;;;;6.20;5.50;;;16.90;99.90;;;;;;5037510;28;20501;-89
2021/05/11 10:57:32;;;;;;;5.72;5.05;;;16.90;99.90;;;;;;5038699;28;20025;-87
2021/05/11 11:00:16;;;;;;;5.97;5.05;;;17.20;99.90;;;;;;5038433;28;20025;-87
2021/05/11 11:02:45;;;;;;;5.88;5.15;;;17.50;99.90;;;;;;5038284;28;20036;-87
2021/05/11 11:05:12;;;;;;;6.18;5.03;;;17.50;99.90;;;;;;5038380;28;20074;-88
2021/05/11 11:07:40;;;;;;;4.30;3.90;;;17.70;99.90;;;;;;5056531;28;20389;-87
2021/05/11 11:10:08;;;;;;;3.70;3.33;;;18.00;99.90;;;;;;5056918;28;20021;-85
2021/05/11 11:12:39;;;;;;;4.32;3.88;;;19.00;99.90;;;;;;5040840;28;20028;-86
2021/05/11 11:15:18;;;;;;;3.63;3.33;;;19.70;99.90;;;;;;5041225;28;20025;-86
2021/05/11 11:17:49;;;;;;;4.43;3.83;;;19.90;99.90;;;;;;5041188;28;20078;-86
2021/05/11 11:20:16;;;;;;;4.90;3.90;;;19.60;99.90;;;;;;5039485;28;20435;-86
2021/05/11 11:25:40;;;;;;;3.03;2.72;;;19.10;99.90;;;;;;5056602;28;20027;-88
2021/05/11 11:28:05;;;;;;;2.97;2.13;;;19.20;99.90;;;;;;5038286;28;20115;-87
2021/05/11 11:30:31;;;;;;;4.18;2.20;;;20.10;99.90;;;;;;5038208;28;20028;-87
2021/05/11 11:33:03;;;;;;;2.03;1.67;;;20.80;99.90;;;;;;5056049;28;20021;-86
2021/05/11 11:35:32;;;;;;;3.95;2.85;;;20.90;99.90;;;;;;5037949;28;20086;-87
2021/05/11 11:37:58;;;;;;;2.08;1.80;;;21.30;99.90;;;;;;5037962;28;20025;-87
2021/05/11 11:40:24;;;;;;;3.08;2.20;;;21.20;99.90;;;;;;5038121;28;20021;-88
2021/05/11 11:42:51;;;;;;;1.73;1.38;;;21.10;99.90;;;;;;5037322;28;20028;-86
2021/05/11 11:45:28;;;;;;;3.20;1.80;;;20.80;99.90;;;;;;5037723;28;20070;-86
2021/05/11 11:47:56;;;;;;;1.38;0.95;;;20.10;99.90;;;;;;5037147;28;20017;-87
2021/05/11 11:50:22;;;;;;;3.58;1.00;;;19.70;99.90;;;;;;5055582;28;20467;-88
2021/05/11 11:53:00;;;;;;;2.00;1.15;;;19.50;99.90;;;;;;5055222;28;20142;-88
2021/05/11 11:58:04;;;;;;;1.33;1.00;;;19.10;99.90;;;;;;5055767;28;20025;-88
2021/05/11 12:00:34;;;;;;;2.22;1.05;;;19.00;99.90;;;;;;5037458;28;20043;-88
2021/05/11 12:03:02;;;;;;;2.67;1.40;;;18.90;99.90;;;;;;5037237;28;20500;-86
2021/05/11 12:05:34;;;;;;;1.88;1.33;;;18.70;99.90;;;;;;5036950;28;20102;-87
2021/05/11 12:08:09;;;;;;;3.85;1.20;;;18.50;99.90;;;;;;5037195;28;20098;-87
2021/05/11 12:10:39;;;;;;;1.48;1.05;;;18.30;99.90;;;;;;5036986;28;20021;-86
2021/05/11 12:13:08;;;;;;;3.08;1.08;;;18.30;99.90;;;;;;5037095;28;20106;-86
2021/05/11 12:15:34;;;;;;;3.00;1.40;;;18.20;99.90;;;;;;5036926;28;20025;-87
2021/05/11 12:18:05;;;;;;;2.72;1.40;;;18.10;99.90;;;;;;5036922;28;20031;-87
2021/05/11 12:20:31;;;;;;;1.98;0.90;;;18.10;99.90;;;;;;5036782;28;20024;-87
2021/05/11 12:23:13;;;;;;;1.58;1.00;;;18.00;99.90;;;;;;5054763;28;20036;-86
2021/05/11 12:25:53;;;;;;;1.20;0.80;;;18.00;99.90;;;;;;5054875;28;20018;-87
2021/05/11 12:28:39;;;;;;;0.77;0.60;;;18.00;99.90;;;;;;5054663;28;20021;-87
2021/05/11 12:31:09;;;;;;;1.70;0.73;;;17.80;99.90;;;;;;5036932;28;20021;-88
2021/05/11 12:33:42;;;;;;;2.58;0.90;;;17.80;99.90;;;;;;5037079;28;20021;-89
2021/05/11 12:36:15;;;;;;;4.55;0.82;;;17.60;99.90;;;;;;5055189;28;20610;-88
2021/05/11 12:38:41;;;;;;;0.88;0.70;;;17.50;99.90;;;;;;5038325;28;20431;-85
2021/05/11 12:41:13;;;;;;;3.42;0.98;;;17.40;99.90;;;;;;5038977;28;20025;-88
2021/05/11 12:43:50;;;;;;;1.70;0.98;;;17.20;99.90;;;;;;5036616;28;20029;-87
2021/05/11 12:46:21;;;;;;;1.52;1.00;;;17.20;99.90;;;;;;5054324;28;20417;-86
2021/05/11 12:49:21;;;;;;;1.88;1.10;;;17.00;99.90;;;;;;5036194;28;20076;-88
2021/05/11 12:51:52;;;;;;;3.80;1.50;;;16.90;99.90;;;;;;5054357;28;20032;-86
2021/05/11 12:54:33;;;;;;;2.22;1.35;;;16.90;99.90;;;;;;5036210;28;20028;-86
2021/05/11 13:02:10;;;;;;;2.13;1.50;;;16.70;99.90;;;;;;5054110;28;20052;-86
2021/05/11 13:26:29;;;;;;;4.15;2.55;;;16.00;99.90;;;;;;5053891;28;20028;-87
2021/05/11 13:34:11;;;;;;;5.32;3.65;;;15.80;99.90;;;;;;5053963;28;20040;-88
2021/05/11 13:36:41;;;;;;;4.25;3.83;;;15.70;99.90;;;;;;5036605;28;20079;-87
2021/05/11 13:39:09;;;;;;;4.47;4.07;;;15.50;99.90;;;;;;5035939;28;20032;-87
2021/05/11 13:41:35;;;;;;;4.57;4.18;;;15.30;99.90;;;;;;5035961;28;20021;-88
2021/05/11 13:44:01;;;;;;;4.32;3.92;;;15.30;99.90;;;;;;5035854;28;20052;-88
2021/05/11 13:46:27;;;;;;;5.20;4.10;;;15.20;99.90;;;;;;5053905;28;20032;-87
2021/05/11 13:48:52;;;;;;;5.18;4.68;;;15.30;99.90;;;;;;5035334;28;20053;-87
2021/05/11 13:51:19;;;;;;;4.50;4.10;;;15.20;99.90;;;;;;5035535;28;20021;-87
2021/05/11 13:53:49;;;;;;;6.38;4.88;;;15.10;99.90;;;;;;5035530;28;20449;-86
2021/05/11 14:04:22;;;;;;;5.72;4.65;;;15.10;99.90;;;;;;5057163;28;20037;-86
2021/05/11 14:06:48;;;;;;;5.18;4.40;;;15.10;99.90;;;;;;5039207;28;20022;-86
2021/05/11 14:09:14;;;;;;;4.38;3.50;;;15.00;99.90;;;;;;5055560;28;20021;-85
2021/05/11 14:11:40;;;;;;;3.80;3.22;;;15.00;99.90;;;;;;5035902;28;20465;-87
2021/05/11 14:14:09;;;;;;;4.28;3.22;;;14.90;99.90;;;;;;5035439;28;20036;-87
2021/05/11 14:16:35;;;;;;;3.35;3.05;;;14.90;99.90;;;;;;5035432;28;20028;-87
2021/05/11 14:19:01;;;;;;;4.57;3.00;;;14.80;99.90;;;;;;5035562;28;20129;-88
2021/05/11 14:21:27;;;;;;;3.42;3.13;;;14.70;99.90;;;;;;5038556;28;20055;-85
2021/05/11 14:23:56;;;;;;;3.25;2.88;;;14.80;99.90;;;;;;5038427;28;20039;-86
2021/05/11 14:26:23;;;;;;;2.40;2.20;;;14.70;99.90;;;;;;5038005;28;20024;-86
2021/05/11 14:28:48;;;;;;;2.28;2.00;;;14.60;99.90;;;;;;5039711;28;20159;-84
2021/05/11 14:31:15;;;;;;;2.10;1.90;;;14.60;99.90;;;;;;5042439;28;20056;-86
2021/05/11 14:33:40;;;;;;;2.10;1.90;;;14.70;99.90;;;;;;5070351;28;20032;-85
2021/05/11 14:36:07;;;;;;;1.38;1.27;;;14.70;99.90;;;;;;5044995;28;20025;-85
2021/05/11 14:38:37;;;;;;;2.00;1.80;;;14.60;99.90;;;;;;5040742;28;20116;-85
2021/05/11 14:41:03;;;;;;;2.20;1.40;;;14.50;99.90;;;;;;5038687;28;20025;-85
2021/05/11 14:43:33;;;;;;;3.30;1.90;;;14.40;99.90;;;;;;5041407;28;20029;-85
2021/05/11 14:46:00;;;;;;;2.38;1.90;;;14.20;99.90;;;;;;5041404;28;20052;-86
2021/05/11 14:48:26;;;;;;;2.05;1.85;;;14.20;99.90;;;;;;5040742;28;20095;-86
2021/05/11 14:50:52;;;;;;;1.02;0.93;;;14.20;99.90;;;;;;5040758;28;20040;-86
2021/05/11 14:53:18;;;;;;;2.22;1.30;;;14.30;99.90;;;;;;5041858;28;20036;-85
2021/05/11 14:55:44;;;;;;;1.48;1.08;;;14.20;99.90;;;;;;5042438;28;20035;-85
2021/05/11 14:58:09;;;;;;;1.33;0.90;;;14.20;99.90;;;;;;5061383;28;20485;-86
2021/05/11 15:00:36;;;;;;;1.27;0.98;;;14.00;99.90;;;;;;5060001;28;20538;-85
2021/05/11 15:03:01;;;;;;;1.27;1.00;;;13.90;99.90;;;;;;5040550;28;20025;-85
2021/05/11 15:05:27;;;;;;;1.35;0.90;;;13.90;99.90;;;;;;5038407;28;20017;-86
2021/05/11 15:07:54;;;;;;;1.00;0.90;;;13.90;99.90;;;;;;5056185;28;20033;-85
2021/05/11 15:10:20;;;;;;;2.78;2.17;;;14.00;99.90;;;;;;5038088;28;20025;-85
2021/05/11 15:12:47;;;;;;;1.92;1.73;;;13.90;99.90;;;;;;5037971;28;20120;-84
2021/05/11 15:15:20;;;;;;;5.15;1.67;;;13.90;99.90;;;;;;5037968;28;20056;-83
2021/05/11 15:20:13;;;;;;;3.55;1.23;;;14.00;99.90;;;;;;5056088;28;20036;-82
2021/05/11 15:22:39;;;;;;;1.65;1.55;;;13.90;99.90;;;;;;5037746;28;20575;-83
2021/05/11 15:25:05;;;;;;;2.97;1.55;;;13.90;99.90;;;;;;5037873;28;20057;-83
2021/05/11 15:27:32;;;;;;;2.40;1.33;;;13.90;99.90;;;;;;5055654;28;20021;-82
2021/05/11 15:29:58;;;;;;;4.32;1.60;;;14.00;99.90;;;;;;5055609;28;20508;-83
2021/05/11 15:32:42;;;;;;;1.95;1.65;;;13.90;99.90;;;;;;5037682;28;20060;-83
2021/05/11 15:35:14;;;;;;;2.97;1.55;;;13.90;99.90;;;;;;5037679;28;20112;-83
2021/05/11 15:37:41;;;;;;;2.33;1.80;;;13.90;99.90;;;;;;5055478;28;20060;-83
2021/05/11 15:40:15;;;;;;;3.58;2.20;;;13.90;99.90;;;;;;5036655;28;20048;-82
2021/05/11 15:42:41;;;;;;;2.30;1.48;;;13.80;99.90;;;;;;5055349;28;20433;-82
2021/05/11 15:45:09;;;;;;;2.22;1.80;;;13.80;99.90;;;;;;5038578;28;20038;-82
2021/05/11 15:47:37;;;;;;;3.38;1.98;;;13.80;99.90;;;;;;5037265;28;20024;-83
2021/05/11 15:50:06;;;;;;;2.55;1.80;;;13.70;99.90;;;;;;5055084;28;20095;-83
2021/05/11 15:52:32;;;;;;;1.73;1.20;;;13.60;99.90;;;;;;5037244;28;20032;-82
2021/05/11 15:54:58;;;;;;;3.08;1.90;;;13.60;99.90;;;;;;5037248;28;20021;-84
2021/05/11 15:57:23;;;;;;;2.92;1.33;;;13.60;99.90;;;;;;5037178;28;20085;-84
2021/05/11 15:59:49;;;;;;;3.97;1.48;;;13.70;99.90;;;;;;5055011;28;20025;-83
2021/05/11 16:02:15;;;;;;;2.80;1.27;;;13.60;99.90;;;;;;5054904;28;20108;-83
2021/05/11 16:04:40;;;;;;;1.20;0.43;;;13.60;99.90;;;;;;5037020;28;20025;-84
2021/05/11 16:07:06;;;;;;;1.70;1.02;;;13.50;99.90;;;;;;5054863;28;20029;-83
2021/05/11 16:09:32;;;;;;;2.40;1.30;;;13.40;99.90;;;;;;5037020;28;20025;-84
2021/05/11 16:11:57;;;;;;;3.13;1.58;;;13.50;99.90;;;;;;5036914;28;20400;-80
2021/05/11 16:14:24;;;;;;;3.28;1.08;;;13.40;99.90;;;;;;5054714;28;20111;-80
2021/05/11 16:16:49;;;;;;;3.97;1.00;;;13.40;99.90;;;;;;5036847;28;20131;-80
2021/05/11 16:19:15;;;;;;;1.95;1.17;;;13.30;99.90;;;;;;5036805;28;20519;-79
2021/05/11 16:21:41;;;;;;;2.20;1.35;;;13.40;99.90;;;;;;5036737;28;20071;-79
2021/05/11 16:24:07;;;;;;;4.50;1.00;;;13.40;99.90;;;;;;5054475;28;20108;-78
2021/05/11 16:26:32;;;;;;;8.80;1.30;;;13.40;99.90;;;;;;5054704;28;20047;-79
2021/05/11 16:28:58;;;;;;;1.17;0.80;;;13.30;99.90;;;;;;5055011;28;20092;-79
2021/05/11 16:31:24;;;;;;;2.45;1.23;;;13.30;99.90;;;;;;5054366;28;20028;-79
2021/05/11 16:33:50;;;;;;;3.22;2.40;;;13.20;99.90;;;;;;5036453;28;20028;-79
2021/05/11 16:36:16;;;;;;;3.08;1.13;;;13.20;99.90;;;;;;5054616;28;20025;-79
2021/05/11 16:38:42;;;;;;;3.83;2.20;;;13.20;99.90;;;;;;5054220;28;20028;-79
2021/05/11 16:41:08;;;;;;;6.95;3.45;;;13.20;99.90;;;;;;5054460;28;20470;-79
2021/05/11 16:43:34;;;;;;;4.60;1.48;;;13.10;99.90;;;;;;5036219;28;20036;-79
2021/05/11 16:46:02;;;;;;;4.95;2.15;;;13.00;99.90;;;;;;5054335;28;20021;-79
2021/05/11 16:48:31;;;;;;;2.17;1.20;;;13.10;99.90;;;;;;5036068;28;20123;-79
2021/05/11 16:50:57;;;;;;;1.75;0.95;;;13.10;99.90;;;;;;5053677;28;20021;-78
2021/05/11 16:53:23;;;;;;;1.73;0.95;;;13.10;99.90;;;;;;5035635;28;20518;-78
2021/05/11 16:55:49;;;;;;;4.82;1.38;;;13.00;99.90;;;;;;5053955;28;20026;-78
2021/05/11 16:58:15;;;;;;;3.60;1.80;;;13.00;99.90;;;;;;5053951;28;20025;-79
2021/05/11 17:00:42;;;;;;;2.72;1.02;;;13.10;99.90;;;;;;5053899;28;20500;-78
2021/05/11 17:03:08;;;;;;;3.20;1.20;;;13.00;99.90;;;;;;5035919;28;20053;-78
2021/05/11 17:05:34;;;;;;;1.65;1.02;;;13.10;99.90;;;;;;5035919;28;20029;-78
2021/05/11 17:08:02;;;;;;;1.50;0.98;;;12.90;99.90;;;;;;5053763;28;20052;-78
2021/05/11 17:10:31;;;;;;;1.80;0.80;;;12.90;99.90;;;;;;5035801;28;20039;-78